Latest Coastal Weather Observations for Port Macquarie Airport

IDN60701

Issued at 8:45 pm EDT Thursday 27 November 2014 (issued every 10 minutes, with the page automatically refreshed every 10 minutes)

About coastal observations | Map of coastal stations | Coastal observations for NSW | Marine services | Other Formats
Station Details ID: 060139 Name: PORT MACQUARIE AIRPORT AWS Lat: -31.43 Lon: 152.87 Height: 4.2 m
Data from the previous 72 hours. | See also: Recent months at Port Macquarie Airport
Date/Time
EDT
Temp

°C
Wind Pressure Rain
since 9am
mm
Weather Cloud Vis
km
Sea
Height
m
Swell
Dir
 
Speed
knots
Gust
knots
hPa Trend Height
m
Period
s
Dir
27/08:44pm 19.2 S 9 12 1021.7 - 9.6 - Partly cloudy 10 - - - -
27/08:43pm 19.2 S 9 12 1021.7 - 9.6 - Partly cloudy 10 - - - -
27/08:30pm 19.5 S 9 13 1021.6 - 9.6 - Partly cloudy 10 - - - -
27/08:00pm 20.1 S 10 15 1021.4 - 9.6 - Partly cloudy 10 - - - -
27/07:30pm 21.5 SSW 10 13 1021.1 - 9.6 - Partly cloudy 10 - - - -
27/07:00pm 21.9 S 5 8 1020.7 - 9.6 - Partly cloudy 10 - - - -
27/06:30pm 22.5 SSE 8 11 1020.4 - 9.6 - Partly cloudy 10 - - - -
27/06:00pm 22.8 SSE 9 12 1019.9 - 9.6 - Partly cloudy 10 - - - -
27/05:30pm 23.2 SSE 11 15 1019.5 - 9.6 - - 10 - - - -
27/05:00pm 23.5 SE 10 17 1019.5 - 9.6 - Partly cloudy 10 - - - -
27/04:30pm 23.5 SE 12 18 1019.3 - 9.6 - Partly cloudy 10 - - - -
27/04:00pm 24.1 SSE 13 17 1019.1 - 9.6 - Partly cloudy 10 - - - -
27/03:30pm 23.3 SSE 10 15 1019.4 - 9.6 - Cloudy 10 - - - -
27/03:00pm 22.1 SSE 7 13 1019.7 - 9.6 - Cloudy 10 - - - -
27/02:30pm 20.7 SSE 6 8 1019.7 - 9.6 - Partly cloudy 10 - - - -
27/02:00pm 20.4 SSE 9 12 1019.8 - 9.6 - Partly cloudy 10 - - - -
27/01:38pm 20.3 SSE 9 13 1019.7 - 9.6 - Partly cloudy 10 - - - -
27/01:30pm 19.9 S 9 13 1019.7 - 9.6 - Partly cloudy 6 - - - -
27/01:08pm 19.7 S 11 16 1019.6 - 7.0 - Partly cloudy 5 - - - -
27/01:00pm 20.5 S 9 16 1019.5 - 6.4 - Partly cloudy 8 - - - -
27/12:30pm 21.6 SE 9 14 1019.3 - 5.2 - Partly cloudy 10 - - - -
27/12:00pm 21.5 SSE 13 19 1019.1 - 5.2 Recent precip. Cloudy 10 - - - -
27/11:30am 21.4 S 12 18 1018.7 - 5.2 - Partly cloudy 10 - - - -
27/11:28am 20.3 S 13 18 1018.8 - 5.2 - Partly cloudy 10 - - - -
27/11:22am 19.9 SW 10 13 1018.8 - 5.2 - Partly cloudy 9 - - - -
27/11:21am 20.0 SW 10 13 1018.8 - 5.2 - Partly cloudy 8 - - - -
27/11:01am 20.4 SSW 10 14 1018.8 - 2.4 - Partly cloudy 5 - - - -
27/11:00am 20.8 SSW 9 12 1018.9 - 2.2 - Partly cloudy 6 - - - -
27/10:59am 20.9 SSW 10 12 1018.9 - 1.8 - Partly cloudy 7 - - - -
27/10:53am 21.0 S 10 14 1018.7 - 1.2 - Partly cloudy 10 - - - -
27/10:52am 21.0 S 10 14 1018.7 - 1.2 - Partly cloudy 10 - - - -
27/10:42am 21.3 SSE 9 12 1018.6 - 1.2 - Partly cloudy 7 - - - -
27/10:41am 21.2 SSE 9 12 1018.6 - 1.2 - Partly cloudy 7 - - - -
27/10:30am 21.4 SE 8 13 1018.4 - 0.6 - Partly cloudy 10 - - - -
27/10:23am 21.4 SSE 9 13 1018.4 - 0.6 - Partly cloudy 10 - - - -
27/10:19am 21.3 SSE 10 14 1018.4 - 0.6 - Partly cloudy 10 - - - -
27/10:18am 21.2 SSE 10 15 1018.4 - 0.6 - Partly cloudy 9 - - - -
27/10:08am 21.0 SSE 14 23 1018.3 - 0.6 - Partly cloudy 5 - - - -
27/10:00am 23.0 SE 11 18 1018.1 - 0.0 - Partly cloudy 10 - - - -
27/09:52am 23.5 SE 11 15 1018.0 - 0.0 - Partly cloudy 10 - - - -
27/09:51am 24.1 SE 11 15 1018.0 - 0.0 - Partly cloudy 10 - - - -
27/09:30am 22.8 SE 11 13 1018.0 - 0.0 - Partly cloudy 10 - - - -
27/09:16am 22.5 S 7 10 1018.0 - 0.0 - Partly cloudy 10 - - - -
27/09:15am 22.5 S 7 10 1018.0 - 0.0 - Partly cloudy 10 - - - -
27/09:05am 21.8 S 8 10 1018.0 - 0.0 - Partly cloudy 10 - - - -
27/09:04am 21.8 S 8 10 1018.0 - 0.0 - Partly cloudy 10 - - - -
27/09:00am 21.6 S 7 10 1018.0 - 0.8 Recent precip. Cloudy 10 - - - -
27/08:30am 21.3 S 7 9 1017.7 - 0.8 - Partly cloudy 10 - - - -
27/08:24am 21.3 S 7 9 1017.7 - 0.8 - Partly cloudy 10 - - - -
27/08:23am 21.2 S 7 9 1017.7 - 0.8 - Partly cloudy 10 - - - -
27/08:17am 21.1 S 7 9 1017.6 - 0.8 - Partly cloudy 10 - - - -
27/08:00am 21.0 S 6 11 1017.5 - 0.6 - Partly cloudy 3 - - - -
27/07:43am 21.0 SSE 6 9 1017.4 - 0.0 - Partly cloudy 5 - - - -
27/07:30am 20.8 SSW 4 6 1017.1 - 0.0 - Cloudy 10 - - - -
27/07:00am 20.5 SSW 4 5 1016.9 - 0.0 - Partly cloudy 10 - - - -
27/06:42am 20.5 SSW 4 5 1016.6 - 0.0 - Partly cloudy 10 - - - -
27/06:41am 20.5 SSW 4 5 1016.6 - 0.0 - Partly cloudy 10 - - - -
27/06:40am 20.5 SSW 4 5 1016.6 - 0.0 - Partly cloudy 10 - - - -
27/06:39am 20.5 SSW 4 5 1016.6 - 0.0 - Partly cloudy 10 - - - -
27/06:30am 20.4 S 5 6 1016.5 - 0.0 - Partly cloudy 10 - - - -
27/06:26am 20.4 SSW 5 6 1016.4 - 0.0 - Partly cloudy 10 - - - -
27/06:25am 20.4 SSW 5 6 1016.4 - 0.0 - Partly cloudy 10 - - - -
27/06:07am 20.5 SW 3 4 1016.1 - 0.0 - Cloudy 10 - - - -
27/06:06am 20.5 SW 3 4 1016.1 - 0.0 - Cloudy 10 - - - -
27/06:00am 20.5 WSW 3 5 1016.0 - 0.0 - Mostly cloudy 10 - - - -
27/05:30am 20.5 SW 3 4 1015.8 - 0.0 - Partly cloudy 10 - - - -
27/05:22am 20.4 WSW 3 4 1015.6 - 0.0 - Partly cloudy 10 - - - -
27/05:21am 20.4 WSW 3 4 1015.6 - 0.0 - Partly cloudy 10 - - - -
27/05:00am 20.4 SW 2 5 1015.2 - 0.0 - Partly cloudy 10 - - - -
27/04:53am 20.4 CALM 0 0 1015.2 - 0.0 - Partly cloudy 10 - - - -
27/04:52am 20.4 CALM 0 0 1015.2 - 0.0 - Partly cloudy 10 - - - -
27/04:30am 20.5 CALM 0 0 1014.9 - 0.0 - Partly cloudy 10 - - - -
27/04:00am 20.3 SSW 1 3 1014.6 - 0.0 - Cloudy 10 - - - -
27/03:38am 20.3 CALM 0 0 1014.7 - 0.0 - Partly cloudy 10 - - - -
27/03:37am 20.3 CALM 0 0 1014.7 - 0.0 - Partly cloudy 10 - - - -
27/03:30am 20.2 CALM 0 0 1014.7 - 0.0 - Partly cloudy 10 - - - -
27/03:16am 20.3 CALM 0 0 1014.8 - 0.0 - Partly cloudy 10 - - - -
27/03:15am 20.3 CALM 0 0 1014.8 - 0.0 - Partly cloudy 10 - - - -
27/03:00am 20.2 CALM 0 0 1014.9 - 0.0 - Cloudy 10 - - - -
27/02:55am 20.1 CALM 0 0 1015.0 - 0.0 - Partly cloudy 10 - - - -
27/02:54am 20.2 CALM 0 0 1015.0 - 0.0 - Partly cloudy 10 - - - -
27/02:53am 20.2 CALM 0 0 1015.0 - 0.0 - Partly cloudy 10 - - - -
27/02:30am 20.1 SSW 1 3 1015.0 - 0.0 - Partly cloudy 10 - - - -
27/02:05am 19.9 S 3 4 1015.4 - 0.0 - Partly cloudy 10 - - - -
27/02:04am 19.9 S 4 5 1015.4 - 0.0 - Partly cloudy 10 - - - -
27/02:00am 19.9 S 4 5 1015.3 - 0.0 - Partly cloudy 10 - - - -
27/01:37am 19.8 CALM 0 0 1015.4 - 0.0 - Partly cloudy 10 - - - -
27/01:36am 19.9 CALM 0 0 1015.4 - 0.0 - Partly cloudy 10 - - - -
27/01:30am 19.9 CALM 0 0 1015.4 - 0.0 - Partly cloudy 10 - - - -
27/01:27am 20.0 CALM 0 0 1015.5 - 0.0 - Partly cloudy 10 - - - -
27/01:26am 20.0 CALM 0 0 1015.5 - 0.0 - Partly cloudy 10 - - - -
27/01:00am 20.0 CALM 0 0 1015.7 - 0.0 - Cloudy 10 - - - -
27/12:30am 19.9 CALM 0 0 1016.2 - 0.0 - Partly cloudy 10 - - - -
27/12:14am 19.7 NNW 3 3 1016.4 - 0.0 - Partly cloudy 10 - - - -
27/12:13am 19.7 NNW 3 4 1016.4 - 0.0 - Partly cloudy 10 - - - -
27/12:00am 19.9 NNW 3 3 1016.5 - 0.0 - Cloudy 10 - - - -
 
Date/Time
EDT
Temp

°C
Wind Pressure Rain
since 9am
mm
Weather Cloud Vis
km
Sea
Height
m
Swell
Dir
 
Speed
knots
Gust
knots
hPa Trend Height
m
Period
s
Dir
26/11:40pm 20.0 NW 4 5 1016.6 - 0.0 - Partly cloudy 10 - - - -
26/11:39pm 19.9 NW 4 5 1016.7 - 0.0 - Partly cloudy 10 - - - -
26/11:30pm 19.8 NW 5 5 1016.8 - 0.0 - Partly cloudy 10 - - - -
26/11:00pm 19.9 NNW 2 5 1016.7 - 0.0 - Partly cloudy 10 - - - -
26/10:30pm 20.6 SW 3 3 1016.9 - 0.0 - Partly cloudy 10 - - - -
26/10:00pm 21.0 CALM 0 0 1017.1 - 0.0 - Partly cloudy 10 - - - -
26/09:30pm 21.2 CALM 0 0 1017.3 - 0.0 - Partly cloudy 10 - - - -
26/09:00pm 21.2 CALM 0 0 1017.5 - 0.0 - Cloudy 10 - - - -
26/08:30pm 21.5 CALM 0 0 1017.2 - 0.0 - Cloudy 10 - - - -
26/08:00pm 21.3 CALM 0 3 1017.3 - 0.0 - Partly cloudy 10 - - - -
26/07:30pm 21.3 N 4 5 1017.1 - 0.0 - Partly cloudy 10 - - - -
26/07:00pm 21.9 NNE 8 10 1016.7 - 0.0 - Partly cloudy 10 - - - -
26/06:30pm 22.2 NE 8 13 1016.3 - 0.0 - Partly cloudy 10 - - - -
26/06:00pm 22.7 NE 7 9 1016.1 - 0.0 - Cloudy 10 - - - -
26/05:30pm 23.0 NE 7 10 1016.2 - 0.0 - Partly cloudy 10 - - - -
26/05:00pm 22.9 NE 9 11 1016.1 - 0.0 - Cloudy 10 - - - -
26/04:30pm 22.9 NE 8 12 1016.2 - 0.0 - Cloudy 10 - - - -
26/04:00pm 23.0 ENE 9 12 1016.4 - 0.0 - Cloudy 10 - - - -
26/03:30pm 23.4 ENE 10 14 1016.5 - 0.0 - Partly cloudy 10 - - - -
26/03:00pm 23.8 ENE 9 13 1017.0 - 0.0 - Cloudy 10 - - - -
26/02:30pm 23.7 ENE 10 14 1017.1 - 0.0 - Cloudy 10 - - - -
26/02:00pm 23.3 ENE 8 12 1017.7 - 0.0 - Cloudy 10 - - - -
26/01:30pm 23.2 E 8 10 1017.8 - 0.0 - Cloudy 10 - - - -
26/01:00pm 22.8 ENE 9 11 1018.2 - 0.0 - Cloudy 10 - - - -
26/12:30pm 23.2 E 9 13 1018.4 - 0.0 - Partly cloudy 10 - - - -
26/12:00pm 23.0 ENE 9 13 1018.7 - 0.0 - Cloudy 10 - - - -
26/11:30am 23.5 E 11 13 1018.7 - 0.0 - Partly cloudy 10 - - - -
26/11:00am 23.4 E 9 11 1019.0 - 0.0 - Cloudy 10 - - - -
26/10:30am 22.8 E 9 11 1019.0 - 0.0 - Cloudy 10 - - - -
26/10:00am 22.7 E 8 11 1018.9 - 0.0 - Partly cloudy 10 - - - -
26/09:30am 22.3 ENE 7 9 1019.0 - 0.0 - Cloudy 10 - - - -
26/09:00am 22.4 E 7 9 1019.0 - 2.0 - Mostly cloudy 10 - - - -
26/08:30am 22.1 ENE 6 9 1019.2 - 2.0 - Partly cloudy 10 - - - -
26/08:00am 20.6 CALM 0 1 1019.3 - 2.0 - Partly cloudy 10 - - - -
26/07:30am 20.4 WNW 3 4 1019.1 - 2.0 - Partly cloudy 10 - - - -
26/07:00am 20.1 NW 3 4 1018.6 - 2.0 - Partly cloudy 10 - - - -
26/06:30am 19.9 WNW 4 5 1018.6 - 2.0 - Partly cloudy 10 - - - -
26/06:00am 20.0 CALM 0 0 1018.1 - 2.0 - Cloudy 10 - - - -
26/05:30am 19.9 W 3 4 1018.5 - 2.0 - Partly cloudy 10 - - - -
26/05:00am 20.0 CALM 0 0 1018.1 - 2.0 - Partly cloudy 10 - - - -
26/04:30am 20.0 W 4 5 1018.0 - 2.0 - Partly cloudy 10 - - - -
26/04:00am 19.9 W 2 5 1018.0 - 2.0 - Cloudy 10 - - - -
26/03:30am 19.8 CALM 0 3 1017.8 - 2.0 - Cloudy 10 - - - -
26/03:00am 20.0 CALM 0 0 1018.1 - 2.0 - Cloudy 10 - - - -
26/02:30am 20.5 SE 2 5 1018.0 - 2.0 - Partly cloudy 10 - - - -
26/02:00am 20.9 SE 3 4 1018.6 - 2.0 - Cloudy 10 - - - -
26/01:30am 21.0 E 3 5 1019.2 - 2.0 - Partly cloudy 10 - - - -
26/01:00am 20.9 ESE 5 6 1019.2 - 2.0 - Partly cloudy 10 - - - -
26/12:30am 20.9 ESE 5 7 1019.5 - 2.0 - Cloudy 10 - - - -
26/12:00am 20.5 SSW 3 4 1019.7 - 2.0 - Cloudy 10 - - - -
 
Date/Time
EDT
Temp

°C
Wind Pressure Rain
since 9am
mm
Weather Cloud Vis
km
Sea
Height
m
Swell
Dir
 
Speed
knots
Gust
knots
hPa Trend Height
m
Period
s
Dir
25/11:30pm 20.6 SSE 2 4 1019.9 - 2.0 - Cloudy 10 - - - -
25/11:00pm 20.7 S 4 5 1019.8 - 2.0 - Partly cloudy 10 - - - -
25/10:30pm 20.9 S 3 5 1019.6 - 2.0 - Partly cloudy 10 - - - -
25/10:00pm 20.9 S 4 6 1019.5 - 2.0 - Partly cloudy 10 - - - -
25/09:30pm 21.0 S 6 8 1019.2 - 2.0 - Partly cloudy 10 - - - -
25/09:00pm 21.1 SSE 7 9 1019.2 - 2.0 - Cloudy 10 - - - -
25/08:30pm 21.3 S 5 7 1018.8 - 2.0 - Partly cloudy 10 - - - -
25/08:00pm 21.3 SSE 7 10 1018.4 - 2.0 - Partly cloudy 10 - - - -
25/07:30pm 21.4 S 7 9 1017.9 - 2.0 - Partly cloudy 10 - - - -
25/07:00pm 21.6 S 7 11 1017.7 - 2.0 - Partly cloudy 10 - - - -
25/06:30pm 21.8 S 8 13 1017.1 - 2.0 - Partly cloudy 10 - - - -
25/06:00pm 22.1 S 9 14 1016.7 - 2.0 - Cloudy 10 - - - -
25/05:30pm 22.3 S 9 14 1015.8 - 2.0 - Partly cloudy 10 - - - -
25/05:00pm 22.4 S 10 14 1015.5 - 2.0 - Partly cloudy 10 - - - -
25/04:30pm 22.8 S 11 17 1014.9 - 2.0 - - 10 - - - -
25/04:00pm 23.2 S 12 17 1014.8 - 2.0 - - 10 - - - -
25/03:30pm 24.8 SSE 8 12 1014.4 - 2.0 - Partly cloudy 10 - - - -
25/03:00pm 24.4 SE 9 13 1013.9 - 2.0 - Partly cloudy 10 - - - -
25/02:30pm 24.5 SE 7 9 1014.0 - 2.0 - - 10 - - - -
25/02:00pm 24.4 S 11 15 1013.8 - 2.0 - - 10 - - - -
25/01:30pm 25.1 N 1 4 1013.7 - 2.0 - - 10 - - - -
25/01:00pm 24.3 S 5 7 1013.7 - 2.0 - Partly cloudy 10 - - - -
25/12:30pm 24.9 SE 3 4 1014.1 - 0.8 - Partly cloudy 10 - - - -
25/12:00pm 25.1 SSE 6 7 1014.0 - 0.2 - Cloudy 10 - - - -
25/11:30am 24.5 S 10 13 1013.9 - 0.2 - Partly cloudy 10 - - - -
25/11:00am 27.0 SSE 6 9 1013.3 - 0.2 - Partly cloudy 10 - - - -
25/10:30am 28.3 ESE 6 8 1012.9 - 0.0 - - 10 - - - -
25/10:00am 29.8 SE 6 8 1013.0 - 0.0 - Partly cloudy 10 - - - -
25/09:30am 28.5 SSE 4 7 1012.6 - 0.0 - Partly cloudy 10 - - - -
25/09:00am 27.9 SW 4 6 1012.6 - 14.4 - Mostly clear 10 - - - -
25/08:30am 26.3 WNW 4 6 1012.7 - 14.4 - - 10 - - - -
25/08:00am 24.8 WNW 6 7 1012.5 - 14.4 - - 10 - - - -
25/07:30am 23.7 WNW 4 6 1012.0 - 14.4 - - 10 - - - -
25/07:00am 22.8 NW 3 4 1011.7 - 14.4 - - 10 - - - -
25/06:30am 22.2 CALM 0 0 1011.3 - 14.4 - - 10 - - - -
25/06:00am 21.7 W 3 5 1011.1 - 14.4 - - 10 - - - -
25/05:30am 21.4 NW 4 5 1010.7 - 14.4 - - 10 - - - -
25/05:00am 21.5 CALM 0 0 1010.4 - 14.4 - - 10 - - - -
25/04:30am 21.6 S 4 5 1010.5 - 14.4 - Partly cloudy 10 - - - -
25/04:00am 21.8 W 3 6 1010.4 - 14.4 - Partly cloudy 10 - - - -
25/03:30am 21.5 W 4 6 1010.4 - 14.4 - Partly cloudy 10 - - - -
25/03:00am 21.1 WNW 2 5 1010.4 - 14.4 - Mostly clear 7 - - - -
25/02:30am 21.3 NW 1 4 1010.4 - 14.4 - Partly cloudy 6 - - - -
25/02:00am 21.6 NNW 3 4 1010.9 - 14.4 - Partly cloudy 7 - - - -
25/01:30am 21.8 N 2 4 1010.9 - 14.4 - - 8 - - - -
25/01:00am 21.9 NE 4 8 1011.1 - 14.4 - - 9 - - - -
25/12:30am 22.1 N 4 6 1011.6 - 14.4 - - 7 - - - -
25/12:00am 22.2 SSE 1 4 1011.1 - 14.4 Recent precip. Cloudy 10 - - - -
 
Date/Time
EDT
Temp

°C
Wind Pressure Rain
since 9am
mm
Weather Cloud Vis
km
Sea
Height
m
Swell
Dir
 
Speed
knots
Gust
knots
hPa Trend Height
m
Period
s
Dir
24/11:53pm 21.9 ESE 3 8 1010.8 - 14.4 - Partly cloudy 10 - - - -
24/11:51pm 21.9 ESE 4 10 1010.8 - 14.4 - Partly cloudy 10 - - - -
24/11:46pm 21.8 ESE 9 15 1010.8 - 14.4 - Partly cloudy 10 - - - -
24/11:34pm 22.4 E 13 16 1011.2 - 13.6 - Partly cloudy 0.8 - - - -
24/11:33pm 22.5 E 14 16 1011.3 - 13.0 - Partly cloudy 0.7 - - - -
24/11:30pm 22.6 NE 12 14 1011.8 - 10.0 - Partly cloudy 0.8 - - - -
24/11:23pm 23.0 NNW 9 14 1013.4 - 1.8 - Partly cloudy 5 - - - -
24/11:18pm 22.8 N 11 14 1013.4 - 0.0 - Partly cloudy 8 - - - -
24/11:00pm 23.1 SE 3 5 1011.3 - 0.0 - Partly cloudy 10 - - - -
24/10:30pm 23.0 SSW 5 7 1010.9 - 0.0 - Partly cloudy 10 - - - -
24/10:00pm 22.9 ESE 2 4 1011.5 - 0.0 - Partly cloudy 10 - - - -
24/09:30pm 23.1 ESE 4 5 1010.6 - 0.0 - Partly cloudy 9 - - - -
24/09:00pm 24.2 E 10 12 1009.3 - 0.0 - Cloudy 10 - - - -

Other Formats:

Comma delimited format used in spreadsheet applications
http://www.bom.gov.au/fwo/IDN60701/IDN60701.94786.axf

JavaScript Object Notation format (JSON) in row-major order
http://www.bom.gov.au/fwo/IDN60701/IDN60701.94786.json